sensor_id;sensor_type;location;lat;lon;timestamp;pressure;altitude;pressure_sealevel;temperature;humidity
10732;BME280;74907;42.812;23.216;2024-02-26T00:00:15;95031.84;;;5.93;92.28
10732;BME280;74907;42.812;23.216;2024-02-26T00:02:43;95036.19;;;5.93;92.06
10732;BME280;74907;42.812;23.216;2024-02-26T00:05:09;95031.31;;;5.87;91.23
10732;BME280;74907;42.812;23.216;2024-02-26T00:07:36;95045.13;;;5.86;91.09
10732;BME280;74907;42.812;23.216;2024-02-26T00:10:05;95042.88;;;5.80;91.66
10732;BME280;74907;42.812;23.216;2024-02-26T00:12:32;95040.63;;;5.74;91.49
10732;BME280;74907;42.812;23.216;2024-02-26T00:14:58;95042.56;;;5.68;92.05
10732;BME280;74907;42.812;23.216;2024-02-26T00:17:25;95037.25;;;5.71;91.59
10732;BME280;74907;42.812;23.216;2024-02-26T00:19:53;95041.53;;;5.73;91.63
10732;BME280;74907;42.812;23.216;2024-02-26T00:22:20;95043.25;;;5.72;91.49
10732;BME280;74907;42.812;23.216;2024-02-26T00:24:47;95041.53;;;5.73;91.44
10732;BME280;74907;42.812;23.216;2024-02-26T00:27:14;95039.84;;;5.71;91.32
10732;BME280;74907;42.812;23.216;2024-02-26T00:29:41;95029.59;;;5.70;91.56
10732;BME280;74907;42.812;23.216;2024-02-26T00:32:07;95028.66;;;5.71;92.02
10732;BME280;74907;42.812;23.216;2024-02-26T00:34:34;95019.34;;;5.68;91.56
10732;BME280;74907;42.812;23.216;2024-02-26T00:37:02;95013.34;;;5.68;91.53
10732;BME280;74907;42.812;23.216;2024-02-26T00:39:29;95012.59;;;5.66;92.34
10732;BME280;74907;42.812;23.216;2024-02-26T00:41:56;95009.84;;;5.69;92.67
10732;BME280;74907;42.812;23.216;2024-02-26T00:44:23;95012.50;;;5.67;92.81
10732;BME280;74907;42.812;23.216;2024-02-26T00:46:49;95000.97;;;5.75;93.36
10732;BME280;74907;42.812;23.216;2024-02-26T00:49:16;94991.38;;;5.77;92.54
10732;BME280;74907;42.812;23.216;2024-02-26T00:51:43;94995.63;;;5.78;93.91
10732;BME280;74907;42.812;23.216;2024-02-26T00:54:11;94995.88;;;5.89;93.41
10732;BME280;74907;42.812;23.216;2024-02-26T00:56:38;94986.00;;;5.97;93.75
10732;BME280;74907;42.812;23.216;2024-02-26T00:59:04;94983.16;;;6.01;93.36
10732;BME280;74907;42.812;23.216;2024-02-26T01:01:31;94976.09;;;6.05;93.52
10732;BME280;74907;42.812;23.216;2024-02-26T01:03:58;94986.16;;;6.10;93.53
10732;BME280;74907;42.812;23.216;2024-02-26T01:06:24;94988.34;;;6.17;93.75
10732;BME280;74907;42.812;23.216;2024-02-26T01:08:51;94988.16;;;6.20;93.23
10732;BME280;74907;42.812;23.216;2024-02-26T01:11:19;94996.53;;;6.25;93.34
10732;BME280;74907;42.812;23.216;2024-02-26T01:13:46;94991.84;;;6.32;93.31
10732;BME280;74907;42.812;23.216;2024-02-26T01:16:13;94992.50;;;6.36;92.86
10732;BME280;74907;42.812;23.216;2024-02-26T01:18:39;94986.41;;;6.37;92.39
10732;BME280;74907;42.812;23.216;2024-02-26T01:21:09;94984.00;;;6.33;91.78
10732;BME280;74907;42.812;23.216;2024-02-26T01:23:36;94985.19;;;6.28;91.54
10732;BME280;74907;42.812;23.216;2024-02-26T01:26:02;94979.25;;;6.26;90.71
10732;BME280;74907;42.812;23.216;2024-02-26T01:28:31;94984.44;;;6.26;91.32
10732;BME280;74907;42.812;23.216;2024-02-26T01:30:58;94979.66;;;6.18;90.65
10732;BME280;74907;42.812;23.216;2024-02-26T01:33:25;94981.56;;;6.15;90.63
10732;BME280;74907;42.812;23.216;2024-02-26T01:35:52;94971.50;;;6.10;91.35
10732;BME280;74907;42.812;23.216;2024-02-26T01:38:19;94973.81;;;6.15;91.40
10732;BME280;74907;42.812;23.216;2024-02-26T01:40:46;94976.06;;;6.21;91.41
10732;BME280;74907;42.812;23.216;2024-02-26T01:43:13;94983.66;;;6.24;91.67
10732;BME280;74907;42.812;23.216;2024-02-26T01:45:41;94977.44;;;6.28;91.44
10732;BME280;74907;42.812;23.216;2024-02-26T01:48:07;94970.69;;;6.25;92.07
10732;BME280;74907;42.812;23.216;2024-02-26T01:50:36;94974.00;;;6.27;91.65
10732;BME280;74907;42.812;23.216;2024-02-26T01:53:03;94974.94;;;6.26;92.23
10732;BME280;74907;42.812;23.216;2024-02-26T01:55:31;94979.09;;;6.29;91.89
10732;BME280;74907;42.812;23.216;2024-02-26T01:57:58;94980.09;;;6.26;91.46
10732;BME280;74907;42.812;23.216;2024-02-26T02:00:25;94982.69;;;6.26;91.49
10732;BME280;74907;42.812;23.216;2024-02-26T02:02:54;94970.59;;;6.27;92.16
10732;BME280;74907;42.812;23.216;2024-02-26T02:05:22;94969.50;;;6.31;92.15
10732;BME280;74907;42.812;23.216;2024-02-26T02:07:49;94972.09;;;6.31;91.81
10732;BME280;74907;42.812;23.216;2024-02-26T02:10:16;94967.84;;;6.30;92.72
10732;BME280;74907;42.812;23.216;2024-02-26T02:12:48;94964.25;;;6.32;92.38
10732;BME280;74907;42.812;23.216;2024-02-26T02:15:14;94969.25;;;6.36;92.63
10732;BME280;74907;42.812;23.216;2024-02-26T02:17:41;94966.84;;;6.32;92.30
10732;BME280;74907;42.812;23.216;2024-02-26T02:20:15;94966.91;;;6.31;92.20
10732;BME280;74907;42.812;23.216;2024-02-26T02:22:43;94959.25;;;6.29;91.59
10732;BME280;74907;42.812;23.216;2024-02-26T02:25:10;94965.25;;;6.30;92.43
10732;BME280;74907;42.812;23.216;2024-02-26T02:27:37;94966.09;;;6.30;92.53
10732;BME280;74907;42.812;23.216;2024-02-26T02:30:05;94963.75;;;6.26;91.81
10732;BME280;74907;42.812;23.216;2024-02-26T02:32:33;94970.69;;;6.25;91.29
10732;BME280;74907;42.812;23.216;2024-02-26T02:34:59;94970.06;;;6.20;91.81
10732;BME280;74907;42.812;23.216;2024-02-26T02:37:26;94966.75;;;6.18;91.67
10732;BME280;74907;42.812;23.216;2024-02-26T02:39:54;94970.91;;;6.21;91.85
10732;BME280;74907;42.812;23.216;2024-02-26T02:42:23;94971.66;;;6.23;92.55
10732;BME280;74907;42.812;23.216;2024-02-26T02:44:50;94975.16;;;6.22;92.50
10732;BME280;74907;42.812;23.216;2024-02-26T02:47:16;94971.06;;;6.18;92.37
10732;BME280;74907;42.812;23.216;2024-02-26T02:49:43;94974.50;;;6.18;92.25
10732;BME280;74907;42.812;23.216;2024-02-26T02:52:10;94972.91;;;6.16;92.72
10732;BME280;74907;42.812;23.216;2024-02-26T02:54:36;94967.66;;;6.17;93.07
10732;BME280;74907;42.812;23.216;2024-02-26T02:57:07;94978.00;;;6.17;93.04
10732;BME280;74907;42.812;23.216;2024-02-26T02:59:34;94969.22;;;6.20;93.83
10732;BME280;74907;42.812;23.216;2024-02-26T03:02:00;94966.44;;;6.24;93.65
10732;BME280;74907;42.812;23.216;2024-02-26T03:04:27;94967.84;;;6.30;93.13
10732;BME280;74907;42.812;23.216;2024-02-26T03:06:54;94962.66;;;6.30;93.17
10732;BME280;74907;42.812;23.216;2024-02-26T03:09:21;94969.69;;;6.28;93.49
10732;BME280;74907;42.812;23.216;2024-02-26T03:11:48;94978.19;;;6.30;93.30
10732;BME280;74907;42.812;23.216;2024-02-26T03:14:17;94970.25;;;6.33;94.47
10732;BME280;74907;42.812;23.216;2024-02-26T03:16:43;94960.41;;;6.40;93.71
10732;BME280;74907;42.812;23.216;2024-02-26T03:19:10;94958.56;;;6.42;93.39
10732;BME280;74907;42.812;23.216;2024-02-26T03:21:37;94953.88;;;6.48;94.19
10732;BME280;74907;42.812;23.216;2024-02-26T03:24:04;94955.38;;;6.52;93.85
10732;BME280;74907;42.812;23.216;2024-02-26T03:26:31;94955.09;;;6.57;93.27
10732;BME280;74907;42.812;23.216;2024-02-26T03:28:57;94949.84;;;6.58;93.55
10732;BME280;74907;42.812;23.216;2024-02-26T03:31:25;94953.09;;;6.62;93.14
10732;BME280;74907;42.812;23.216;2024-02-26T03:33:52;94953.09;;;6.62;93.14
10732;BME280;74907;42.812;23.216;2024-02-26T03:36:19;94956.59;;;6.61;93.43
10732;BME280;74907;42.812;23.216;2024-02-26T03:38:47;94937.66;;;6.60;92.89
10732;BME280;74907;42.812;23.216;2024-02-26T03:41:14;94941.63;;;6.66;92.71
10732;BME280;74907;42.812;23.216;2024-02-26T03:43:41;94942.47;;;6.67;93.40
10732;BME280;74907;42.812;23.216;2024-02-26T03:46:08;94940.06;;;6.63;93.28
10732;BME280;74907;42.812;23.216;2024-02-26T03:48:38;94934.72;;;6.67;93.58
10732;BME280;74907;42.812;23.216;2024-02-26T03:51:04;94935.81;;;6.62;92.88
10732;BME280;74907;42.812;23.216;2024-02-26T03:53:31;94937.47;;;6.63;92.52
10732;BME280;74907;42.812;23.216;2024-02-26T03:55:58;94948.75;;;6.62;92.93
10732;BME280;74907;42.812;23.216;2024-02-26T03:58:24;94939.22;;;6.63;93.49
10732;BME280;74907;42.812;23.216;2024-02-26T04:00:51;94939.59;;;6.57;92.50
10732;BME280;74907;42.812;23.216;2024-02-26T04:03:18;94942.09;;;6.58;93.02
10732;BME280;74907;42.812;23.216;2024-02-26T04:05:46;94936.25;;;6.55;92.52
10732;BME280;74907;42.812;23.216;2024-02-26T04:08:12;94933.75;;;6.53;92.64
10732;BME280;74907;42.812;23.216;2024-02-26T04:10:39;94945.09;;;6.51;92.90
10732;BME280;74907;42.812;23.216;2024-02-26T04:13:07;94940.28;;;6.45;93.13
10732;BME280;74907;42.812;23.216;2024-02-26T04:15:34;94930.59;;;6.48;92.94
10732;BME280;74907;42.812;23.216;2024-02-26T04:18:01;94939.44;;;6.44;93.06
10732;BME280;74907;42.812;23.216;2024-02-26T04:20:28;94941.72;;;6.35;93.69
10732;BME280;74907;42.812;23.216;2024-02-26T04:22:56;94934.97;;;6.32;92.59
10732;BME280;74907;42.812;23.216;2024-02-26T04:25:22;94929.72;;;6.33;93.60
10732;BME280;74907;42.812;23.216;2024-02-26T04:27:49;94943.56;;;6.32;93.21
10732;BME280;74907;42.812;23.216;2024-02-26T04:30:16;94945.56;;;6.27;93.16
10732;BME280;74907;42.812;23.216;2024-02-26T04:32:43;94936.16;;;6.26;92.67
10732;BME280;74907;42.812;23.216;2024-02-26T04:35:10;94930.25;;;6.24;93.62
10732;BME280;74907;42.812;23.216;2024-02-26T04:37:37;94929.47;;;6.22;93.27
10732;BME280;74907;42.812;23.216;2024-02-26T04:40:06;94933.88;;;6.20;93.57
10732;BME280;74907;42.812;23.216;2024-02-26T04:42:33;94948.47;;;6.21;93.85
10732;BME280;74907;42.812;23.216;2024-02-26T04:44:59;94943.47;;;6.18;93.73
10732;BME280;74907;42.812;23.216;2024-02-26T04:47:26;94939.97;;;6.19;93.21
10732;BME280;74907;42.812;23.216;2024-02-26T04:49:53;94944.22;;;6.20;93.92
10732;BME280;74907;42.812;23.216;2024-02-26T04:52:20;94954.00;;;6.31;93.84
10732;BME280;74907;42.812;23.216;2024-02-26T04:54:46;94948.06;;;6.29;93.58
10732;BME280;74907;42.812;23.216;2024-02-26T04:57:14;94959.41;;;6.26;93.79
10732;BME280;74907;42.812;23.216;2024-02-26T04:59:43;94957.06;;;6.38;93.34
10732;BME280;74907;42.812;23.216;2024-02-26T05:02:11;94957.25;;;6.35;93.83
10732;BME280;74907;42.812;23.216;2024-02-26T05:04:37;94960.75;;;6.33;93.68
10732;BME280;74907;42.812;23.216;2024-02-26T05:07:04;94962.91;;;6.41;94.48
10732;BME280;74907;42.812;23.216;2024-02-26T05:09:31;94959.03;;;6.48;94.59
10732;BME280;74907;42.812;23.216;2024-02-26T05:11:58;94957.13;;;6.52;94.49
10732;BME280;74907;42.812;23.216;2024-02-26T05:14:26;94963.69;;;6.57;94.16
10732;BME280;74907;42.812;23.216;2024-02-26T05:16:53;94966.00;;;6.62;94.31
10732;BME280;74907;42.812;23.216;2024-02-26T05:19:20;94957.34;;;6.63;94.79
10732;BME280;74907;42.812;23.216;2024-02-26T05:21:46;94953.66;;;6.67;94.13
10732;BME280;74907;42.812;23.216;2024-02-26T05:24:14;94957.91;;;6.68;95.06
10732;BME280;74907;42.812;23.216;2024-02-26T05:26:42;94968.25;;;6.68;95.16
10732;BME280;74907;42.812;23.216;2024-02-26T05:29:09;94975.09;;;6.69;94.47
10732;BME280;74907;42.812;23.216;2024-02-26T05:31:37;94974.44;;;6.65;94.08
10732;BME280;74907;42.812;23.216;2024-02-26T05:34:04;94970.09;;;6.66;94.57
10732;BME280;74907;42.812;23.216;2024-02-26T05:36:31;94970.34;;;6.61;94.19
10732;BME280;74907;42.812;23.216;2024-02-26T05:38:59;94972.69;;;6.66;94.32
10732;BME280;74907;42.812;23.216;2024-02-26T05:41:25;94980.63;;;6.63;94.64
10732;BME280;74907;42.812;23.216;2024-02-26T05:43:52;94981.44;;;6.63;94.28
10732;BME280;74907;42.812;23.216;2024-02-26T05:46:19;94982.44;;;6.61;94.29
10732;BME280;74907;42.812;23.216;2024-02-26T05:48:50;94983.94;;;6.65;94.41
10732;BME280;74907;42.812;23.216;2024-02-26T05:51:16;94996.69;;;6.68;94.66
10732;BME280;74907;42.812;23.216;2024-02-26T05:53:43;95001.03;;;6.68;94.48
10732;BME280;74907;42.812;23.216;2024-02-26T05:56:10;95006.03;;;6.71;94.16
10732;BME280;74907;42.812;23.216;2024-02-26T05:58:37;95003.38;;;6.72;94.81
10732;BME280;74907;42.812;23.216;2024-02-26T06:01:04;95001.53;;;6.74;94.87
10732;BME280;74907;42.812;23.216;2024-02-26T06:03:30;95007.72;;;6.72;94.82
10732;BME280;74907;42.812;23.216;2024-02-26T06:05:59;95010.63;;;6.81;94.65
10732;BME280;74907;42.812;23.216;2024-02-26T06:08:25;95007.22;;;6.81;94.67
10732;BME280;74907;42.812;23.216;2024-02-26T06:10:52;95001.59;;;6.88;94.84
10732;BME280;74907;42.812;23.216;2024-02-26T06:13:19;94998.84;;;6.91;94.88
10732;BME280;74907;42.812;23.216;2024-02-26T06:15:46;95010.66;;;6.95;94.57
10732;BME280;74907;42.812;23.216;2024-02-26T06:18:12;95007.38;;;7.08;95.10
10732;BME280;74907;42.812;23.216;2024-02-26T06:20:39;95004.78;;;7.08;94.04
10732;BME280;74907;42.812;23.216;2024-02-26T06:23:07;95011.34;;;7.13;94.64
10732;BME280;74907;42.812;23.216;2024-02-26T06:25:35;95012.94;;;7.16;94.45
10732;BME280;74907;42.812;23.216;2024-02-26T06:28:02;95021.72;;;7.13;94.29
10732;BME280;74907;42.812;23.216;2024-02-26T06:30:28;95014.03;;;7.12;93.29
10732;BME280;74907;42.812;23.216;2024-02-26T06:32:55;95014.88;;;7.12;94.44
10732;BME280;74907;42.812;23.216;2024-02-26T06:35:22;95011.91;;;7.18;94.81
10732;BME280;74907;42.812;23.216;2024-02-26T06:37:48;95022.19;;;7.20;94.42
10732;BME280;74907;42.812;23.216;2024-02-26T06:40:19;95022.19;;;7.20;95.20
10732;BME280;74907;42.812;23.216;2024-02-26T06:42:45;95014.50;;;7.18;94.67
10732;BME280;74907;42.812;23.216;2024-02-26T06:45:12;95023.19;;;7.17;95.02
10732;BME280;74907;42.812;23.216;2024-02-26T06:47:39;95019.69;;;7.18;94.52
10732;BME280;74907;42.812;23.216;2024-02-26T06:50:06;95024.41;;;7.26;95.17
10732;BME280;74907;42.812;23.216;2024-02-26T06:52:33;95019.97;;;7.28;94.28
10732;BME280;74907;42.812;23.216;2024-02-26T06:54:59;95019.56;;;7.36;94.69
10732;BME280;74907;42.812;23.216;2024-02-26T06:57:27;95021.03;;;7.40;94.88
10732;BME280;74907;42.812;23.216;2024-02-26T06:59:54;95021.69;;;7.43;94.77
10732;BME280;74907;42.812;23.216;2024-02-26T07:02:21;95025.13;;;7.44;95.09
10732;BME280;74907;42.812;23.216;2024-02-26T07:04:47;95033.06;;;7.55;94.24
10732;BME280;74907;42.812;23.216;2024-02-26T07:07:14;95029.94;;;7.64;93.99
10732;BME280;74907;42.812;23.216;2024-02-26T07:09:43;95025.13;;;7.72;94.73
10732;BME280;74907;42.812;23.216;2024-02-26T07:12:10;95024.84;;;7.77;94.10
10732;BME280;74907;42.812;23.216;2024-02-26T07:14:38;95029.69;;;7.83;93.69
10732;BME280;74907;42.812;23.216;2024-02-26T07:17:04;95027.72;;;8.01;93.80
10732;BME280;74907;42.812;23.216;2024-02-26T07:19:31;95033.72;;;8.15;94.08
10732;BME280;74907;42.812;23.216;2024-02-26T07:21:58;95027.41;;;8.19;93.35
10732;BME280;74907;42.812;23.216;2024-02-26T07:24:26;95026.19;;;8.25;93.18
10732;BME280;74907;42.812;23.216;2024-02-26T07:26:53;95030.88;;;8.34;92.83
10732;BME280;74907;42.812;23.216;2024-02-26T07:29:20;95031.38;;;8.53;92.70
10732;BME280;74907;42.812;23.216;2024-02-26T07:31:48;95030.59;;;8.66;92.60
10732;BME280;74907;42.812;23.216;2024-02-26T07:34:15;95033.22;;;8.51;91.39
10732;BME280;74907;42.812;23.216;2024-02-26T07:36:42;95038.47;;;8.64;90.77
10732;BME280;74907;42.812;23.216;2024-02-26T07:39:09;95033.53;;;8.74;90.77
10732;BME280;74907;42.812;23.216;2024-02-26T07:41:36;95026.78;;;8.71;91.04
10732;BME280;74907;42.812;23.216;2024-02-26T07:44:04;95034.56;;;8.71;89.91
10732;BME280;74907;42.812;23.216;2024-02-26T07:46:30;95037.28;;;8.82;90.17
10732;BME280;74907;42.812;23.216;2024-02-26T07:48:59;95027.81;;;8.96;90.15
10732;BME280;74907;42.812;23.216;2024-02-26T07:51:25;95031.66;;;9.03;89.82
10732;BME280;74907;42.812;23.216;2024-02-26T07:53:52;95030.03;;;9.14;89.86
10732;BME280;74907;42.812;23.216;2024-02-26T07:56:19;95025.50;;;9.43;89.78
10732;BME280;74907;42.812;23.216;2024-02-26T07:58:46;95022.50;;;9.49;88.67
10732;BME280;74907;42.812;23.216;2024-02-26T08:01:13;95026.03;;;9.74;88.34
10732;BME280;74907;42.812;23.216;2024-02-26T08:03:39;95022.50;;;9.88;87.89
10732;BME280;74907;42.812;23.216;2024-02-26T08:06:08;95031.03;;;9.90;87.43
10732;BME280;74907;42.812;23.216;2024-02-26T08:08:34;95023.41;;;10.12;87.92
10732;BME280;74907;42.812;23.216;2024-02-26T08:11:01;95025.06;;;10.26;87.42
10732;BME280;74907;42.812;23.216;2024-02-26T08:13:28;95019.78;;;10.15;87.57
10732;BME280;74907;42.812;23.216;2024-02-26T08:15:54;95014.56;;;10.27;87.58
10732;BME280;74907;42.812;23.216;2024-02-26T08:18:21;95013.22;;;10.22;88.14
10732;BME280;74907;42.812;23.216;2024-02-26T08:20:48;95011.84;;;10.41;88.60
10732;BME280;74907;42.812;23.216;2024-02-26T08:23:17;95008.19;;;10.68;87.92
10732;BME280;74907;42.812;23.216;2024-02-26T08:25:44;95011.53;;;10.70;86.30
10732;BME280;74907;42.812;23.216;2024-02-26T08:28:10;95002.25;;;10.90;83.67
10732;BME280;74907;42.812;23.216;2024-02-26T08:30:38;94997.03;;;11.14;81.88
10732;BME280;74907;42.812;23.216;2024-02-26T08:33:05;94998.13;;;11.22;79.91
10732;BME280;74907;42.812;23.216;2024-02-26T08:35:32;95003.50;;;11.32;79.57
10732;BME280;74907;42.812;23.216;2024-02-26T08:37:58;95010.91;;;11.49;77.92
10732;BME280;74907;42.812;23.216;2024-02-26T08:40:27;95007.94;;;11.54;77.72
10732;BME280;74907;42.812;23.216;2024-02-26T08:42:54;95012.38;;;11.41;78.48
10732;BME280;74907;42.812;23.216;2024-02-26T08:45:20;95009.28;;;11.70;78.40
10732;BME280;74907;42.812;23.216;2024-02-26T08:47:47;95000.78;;;11.80;76.23
10732;BME280;74907;42.812;23.216;2024-02-26T08:50:14;95006.13;;;12.00;76.42
10732;BME280;74907;42.812;23.216;2024-02-26T08:52:41;95002.94;;;12.08;75.84
10732;BME280;74907;42.812;23.216;2024-02-26T08:55:08;94991.44;;;12.11;75.75
10732;BME280;74907;42.812;23.216;2024-02-26T08:57:36;95003.50;;;12.23;74.82
10732;BME280;74907;42.812;23.216;2024-02-26T09:00:04;95001.38;;;12.28;74.29
10732;BME280;74907;42.812;23.216;2024-02-26T09:02:32;95004.94;;;12.27;74.96
10732;BME280;74907;42.812;23.216;2024-02-26T09:04:59;94991.63;;;12.30;74.62
10732;BME280;74907;42.812;23.216;2024-02-26T09:07:25;94999.34;;;12.31;75.05
10732;BME280;74907;42.812;23.216;2024-02-26T09:09:52;94993.06;;;12.34;73.96
10732;BME280;74907;42.812;23.216;2024-02-26T09:12:19;94992.47;;;12.30;74.05
10732;BME280;74907;42.812;23.216;2024-02-26T09:14:47;94994.25;;;12.30;73.78
10732;BME280;74907;42.812;23.216;2024-02-26T09:17:14;94991.06;;;12.26;74.30
10732;BME280;74907;42.812;23.216;2024-02-26T09:19:41;94988.69;;;12.23;73.52
10732;BME280;74907;42.812;23.216;2024-02-26T09:22:09;94982.75;;;12.32;74.59
10732;BME280;74907;42.812;23.216;2024-02-26T09:24:36;94980.59;;;12.38;74.21
10732;BME280;74907;42.812;23.216;2024-02-26T09:27:03;94984.38;;;12.45;73.41
10732;BME280;74907;42.812;23.216;2024-02-26T09:29:30;94978.31;;;12.44;72.84
10732;BME280;74907;42.812;23.216;2024-02-26T09:31:58;94971.84;;;12.27;73.25
10732;BME280;74907;42.812;23.216;2024-02-26T09:34:26;94981.41;;;12.38;74.37
10732;BME280;74907;42.812;23.216;2024-02-26T09:36:52;94975.25;;;12.39;74.10
10732;BME280;74907;42.812;23.216;2024-02-26T09:39:19;94974.88;;;12.55;73.51
10732;BME280;74907;42.812;23.216;2024-02-26T09:41:47;94968.47;;;12.59;73.77
10732;BME280;74907;42.812;23.216;2024-02-26T09:44:18;94979.31;;;12.75;73.42
10732;BME280;74907;42.812;23.216;2024-02-26T09:46:47;94978.13;;;12.79;72.78
10732;BME280;74907;42.812;23.216;2024-02-26T09:49:15;94972.97;;;12.89;73.09
10732;BME280;74907;42.812;23.216;2024-02-26T09:51:42;94969.88;;;12.95;72.70
10732;BME280;74907;42.812;23.216;2024-02-26T09:54:09;94964.38;;;13.09;72.25
10732;BME280;74907;42.812;23.216;2024-02-26T09:56:39;94962.44;;;13.11;71.66
10732;BME280;74907;42.812;23.216;2024-02-26T09:59:07;94962.44;;;13.11;71.24
10732;BME280;74907;42.812;23.216;2024-02-26T10:01:37;94961.97;;;13.17;71.88
10732;BME280;74907;42.812;23.216;2024-02-26T10:04:05;94962.63;;;13.31;71.74
10732;BME280;74907;42.812;23.216;2024-02-26T10:06:34;94950.63;;;13.28;71.26
10732;BME280;74907;42.812;23.216;2024-02-26T10:09:02;94952.59;;;13.36;70.85
10732;BME280;74907;42.812;23.216;2024-02-26T10:11:31;94955.84;;;13.49;70.06
10732;BME280;74907;42.812;23.216;2024-02-26T10:13:58;94954.31;;;13.67;69.62
10732;BME280;74907;42.812;23.216;2024-02-26T10:16:25;94950.63;;;13.70;68.97
10732;BME280;74907;42.812;23.216;2024-02-26T10:18:53;94940.28;;;13.68;68.71
10732;BME280;74907;42.812;23.216;2024-02-26T10:21:20;94941.69;;;13.72;68.93
10732;BME280;74907;42.812;23.216;2024-02-26T10:23:49;94945.94;;;13.73;67.41
10732;BME280;74907;42.812;23.216;2024-02-26T10:26:16;94945.19;;;13.62;68.19
10732;BME280;74907;42.812;23.216;2024-02-26T10:28:44;94939.44;;;13.68;68.86
10732;BME280;74907;42.812;23.216;2024-02-26T10:31:11;94928.19;;;13.77;68.46
10732;BME280;74907;42.812;23.216;2024-02-26T10:33:41;94921.66;;;13.92;67.54
10732;BME280;74907;42.812;23.216;2024-02-26T10:36:09;94925.25;;;14.01;67.75
10732;BME280;74907;42.812;23.216;2024-02-26T10:38:36;94918.22;;;14.01;67.36
10732;BME280;74907;42.812;23.216;2024-02-26T10:41:06;94918.28;;;14.11;66.59
10732;BME280;74907;42.812;23.216;2024-02-26T10:43:33;94911.41;;;14.10;64.73
10732;BME280;74907;42.812;23.216;2024-02-26T10:46:00;94916.91;;;14.16;63.43
10732;BME280;74907;42.812;23.216;2024-02-26T10:48:27;94922.84;;;14.18;62.73
10732;BME280;74907;42.812;23.216;2024-02-26T10:50:54;94923.13;;;14.15;62.51
10732;BME280;74907;42.812;23.216;2024-02-26T10:53:23;94905.09;;;14.22;62.16
10732;BME280;74907;42.812;23.216;2024-02-26T10:55:53;94923.00;;;14.27;62.48
10732;BME280;74907;42.812;23.216;2024-02-26T10:58:23;94911.56;;;14.18;62.52
10732;BME280;74907;42.812;23.216;2024-02-26T11:00:51;94915.00;;;14.18;62.27
10732;BME280;74907;42.812;23.216;2024-02-26T11:03:19;94908.13;;;14.27;62.28
10732;BME280;74907;42.812;23.216;2024-02-26T11:05:48;94893.38;;;14.26;62.19
10732;BME280;74907;42.812;23.216;2024-02-26T11:08:15;94905.78;;;14.34;62.19
10732;BME280;74907;42.812;23.216;2024-02-26T11:10:42;94895.47;;;14.42;62.46
10732;BME280;74907;42.812;23.216;2024-02-26T11:13:12;94901.44;;;14.44;61.95
10732;BME280;74907;42.812;23.216;2024-02-26T11:15:43;94896.75;;;14.47;61.09
10732;BME280;74907;42.812;23.216;2024-02-26T11:18:10;94905.13;;;14.41;61.58
10732;BME280;74907;42.812;23.216;2024-02-26T11:20:40;94897.25;;;14.41;61.34
10732;BME280;74907;42.812;23.216;2024-02-26T11:23:07;94900.28;;;14.37;61.10
10732;BME280;74907;42.812;23.216;2024-02-26T11:25:35;94896.19;;;14.44;62.08
10732;BME280;74907;42.812;23.216;2024-02-26T11:28:04;94894.41;;;14.54;61.60
10732;BME280;74907;42.812;23.216;2024-02-26T11:30:34;94894.81;;;14.49;60.88
10732;BME280;74907;42.812;23.216;2024-02-26T11:33:06;94892.50;;;14.66;60.70
10732;BME280;74907;42.812;23.216;2024-02-26T11:35:34;94889.59;;;14.59;60.69
10732;BME280;74907;42.812;23.216;2024-02-26T11:38:03;94886.31;;;14.67;59.79
10732;BME280;74907;42.812;23.216;2024-02-26T11:40:32;94886.84;;;14.61;60.67
10732;BME280;74907;42.812;23.216;2024-02-26T11:42:59;94886.56;;;14.64;61.04
10732;BME280;74907;42.812;23.216;2024-02-26T11:45:47;94876.22;;;14.62;60.64
10732;BME280;74907;42.812;23.216;2024-02-26T11:48:20;94878.28;;;14.49;61.14
10732;BME280;74907;42.812;23.216;2024-02-26T11:50:48;94872.75;;;14.52;60.33
10732;BME280;74907;42.812;23.216;2024-02-26T11:53:25;94871.78;;;14.43;59.99
10732;BME280;74907;42.812;23.216;2024-02-26T11:59:09;94867.97;;;14.57;59.72
10732;BME280;74907;42.812;23.216;2024-02-26T12:01:38;94864.25;;;14.60;59.40
10732;BME280;74907;42.812;23.216;2024-02-26T12:04:06;94866.16;;;14.67;59.76
10732;BME280;74907;42.812;23.216;2024-02-26T12:06:41;94871.53;;;14.66;58.96
10732;BME280;74907;42.812;23.216;2024-02-26T12:09:08;94870.44;;;14.68;59.16
10732;BME280;74907;42.812;23.216;2024-02-26T12:11:37;94873.06;;;14.68;59.15
10732;BME280;74907;42.812;23.216;2024-02-26T12:14:05;94875.81;;;14.76;58.45
10732;BME280;74907;42.812;23.216;2024-02-26T12:16:37;94873.47;;;14.73;58.04
10732;BME280;74907;42.812;23.216;2024-02-26T12:19:09;94867.81;;;14.78;57.61
10732;BME280;74907;42.812;23.216;2024-02-26T12:21:37;94870.72;;;14.84;57.89
10732;BME280;74907;42.812;23.216;2024-02-26T12:24:10;94870.00;;;14.92;56.84
10732;BME280;74907;42.812;23.216;2024-02-26T12:26:37;94881.88;;;14.96;56.76
10732;BME280;74907;42.812;23.216;2024-02-26T12:29:04;94868.91;;;14.95;56.10
10732;BME280;74907;42.812;23.216;2024-02-26T12:31:31;94868.75;;;14.96;57.00
10732;BME280;74907;42.812;23.216;2024-02-26T12:33:59;94865.28;;;15.05;56.11
10732;BME280;74907;42.812;23.216;2024-02-26T12:36:27;94875.50;;;15.08;56.01
10732;BME280;74907;42.812;23.216;2024-02-26T12:38:54;94873.56;;;15.20;56.31
10732;BME280;74907;42.812;23.216;2024-02-26T12:41:21;94866.06;;;15.35;55.86
10732;BME280;74907;42.812;23.216;2024-02-26T12:43:49;94870.06;;;15.39;55.06
10732;BME280;74907;42.812;23.216;2024-02-26T12:46:15;94864.97;;;15.37;54.80
10732;BME280;74907;42.812;23.216;2024-02-26T12:48:43;94859.63;;;15.20;54.81
10732;BME280;74907;42.812;23.216;2024-02-26T12:51:11;94859.34;;;15.23;54.53
10732;BME280;74907;42.812;23.216;2024-02-26T12:53:39;94864.03;;;15.29;55.14
10732;BME280;74907;42.812;23.216;2024-02-26T12:56:07;94866.69;;;15.19;54.48
10732;BME280;74907;42.812;23.216;2024-02-26T12:58:36;94858.81;;;15.19;54.17
10732;BME280;74907;42.812;23.216;2024-02-26T13:01:05;94862.81;;;15.04;54.40